createdAt,value
2022-08-22T00:00:58.295Z,99701.00
2022-08-22T00:03:10.964Z,99697.00
2022-08-22T00:07:28.008Z,99683.00
2022-08-22T00:13:43.420Z,99680.00
2022-08-22T00:20:13.393Z,99679.00
2022-08-22T00:26:46.730Z,99674.00
2022-08-22T00:32:59.760Z,99677.00
2022-08-22T00:39:29.122Z,99683.00
2022-08-22T00:46:10.410Z,99692.00
2022-08-22T00:52:24.434Z,99696.00
2022-08-22T00:58:57.784Z,99689.00
2022-08-22T01:05:10.290Z,99698.00
2022-08-22T01:11:50.110Z,99687.00
2022-08-22T01:18:17.697Z,99686.00
2022-08-22T01:25:12.350Z,99695.00
2022-08-22T01:31:20.777Z,99692.00
2022-08-22T01:37:53.578Z,99694.00
2022-08-22T01:44:09.549Z,99694.00
2022-08-22T01:50:32.754Z,99685.00
2022-08-22T01:56:42.065Z,99681.00
2022-08-22T02:03:13.877Z,99683.00
2022-08-22T02:09:40.627Z,99683.00
2022-08-22T02:16:13.088Z,99685.00
2022-08-22T02:22:35.152Z,99670.00
2022-08-22T02:28:57.400Z,99673.00
2022-08-22T02:35:26.197Z,99662.00
2022-08-22T02:41:47.682Z,99668.00
2022-08-22T02:48:07.110Z,99675.00
2022-08-22T02:54:22.585Z,99670.00
2022-08-22T03:00:33.187Z,99671.00
2022-08-22T03:06:59.271Z,99668.00
2022-08-22T03:13:17.198Z,99662.00
2022-08-22T03:20:12.394Z,99667.00
2022-08-22T03:26:29.708Z,99661.00
2022-08-22T03:32:59.448Z,99664.00
2022-08-22T03:39:23.009Z,99669.00
2022-08-22T03:46:03.679Z,99656.00
2022-08-22T03:53:00.798Z,99654.00
2022-08-22T03:59:21.166Z,99654.00
2022-08-22T04:05:47.326Z,99669.00
2022-08-22T04:12:22.200Z,99666.00
2022-08-22T04:18:33.317Z,99682.00
2022-08-22T04:24:44.610Z,99686.00
2022-08-22T04:31:02.161Z,99696.00
2022-08-22T04:37:33.834Z,99695.00
2022-08-22T04:43:38.951Z,99698.00
2022-08-22T04:49:48.916Z,99705.00
2022-08-22T04:56:21.921Z,99704.00
2022-08-22T05:02:28.298Z,99709.00
2022-08-22T05:08:34.358Z,99710.00
2022-08-22T05:14:43.796Z,99725.00
2022-08-22T05:20:49.363Z,99735.00
2022-08-22T05:26:54.145Z,99736.00
2022-08-22T05:32:59.803Z,99744.00
2022-08-22T05:39:16.793Z,99752.00
2022-08-22T05:45:20.237Z,99759.00
2022-08-22T05:51:28.252Z,99760.00
2022-08-22T05:57:40.005Z,99762.00
2022-08-22T06:04:08.623Z,99775.00
2022-08-22T06:10:26.968Z,99770.00
2022-08-22T06:16:48.925Z,99772.00
2022-08-22T06:22:56.143Z,99772.00
2022-08-22T06:29:01.978Z,99777.00
2022-08-22T06:35:11.843Z,99796.00
2022-08-22T06:41:14.125Z,99767.00
2022-08-22T06:47:28.847Z,99765.00
2022-08-22T06:53:45.969Z,99770.00
2022-08-22T06:59:51.429Z,99810.00
2022-08-22T07:05:56.263Z,99812.00
2022-08-22T07:12:03.310Z,99802.00
2022-08-22T07:18:16.184Z,99799.00
2022-08-22T07:24:23.201Z,99812.00
2022-08-22T07:30:28.666Z,99789.00
2022-08-22T07:36:42.386Z,99817.00
2022-08-22T07:42:53.915Z,99811.00
2022-08-22T07:49:22.793Z,99806.00
2022-08-22T07:55:26.814Z,99790.00
2022-08-22T08:01:29.956Z,99775.00
2022-08-22T08:07:32.794Z,99735.00
2022-08-22T08:13:40.315Z,99728.00
2022-08-22T08:19:45.089Z,99716.00
2022-08-22T08:26:07.693Z,99705.00
2022-08-22T08:32:12.409Z,99751.00
2022-08-22T08:38:20.971Z,99789.00
2022-08-22T08:44:27.510Z,99776.00
2022-08-22T08:50:50.525Z,99737.00
2022-08-22T08:57:04.852Z,99763.00
2022-08-22T09:03:15.838Z,99805.00
2022-08-22T09:09:43.927Z,99799.00
2022-08-22T09:16:08.455Z,99788.00
2022-08-22T09:22:20.935Z,99804.00
2022-08-22T09:28:39.010Z,99788.00
2022-08-22T09:34:46.129Z,99785.00
2022-08-22T09:41:17.727Z,99800.00
2022-08-22T09:47:33.989Z,99732.00
2022-08-22T09:54:02.770Z,99700.00
2022-08-22T10:00:06.729Z,99708.00
2022-08-22T10:06:20.267Z,99713.00
2022-08-22T10:12:36.190Z,99795.00
2022-08-22T10:19:09.728Z,99790.00
2022-08-22T10:25:22.825Z,99791.00
2022-08-22T10:31:58.966Z,99792.00
2022-08-22T10:38:14.535Z,99793.00
2022-08-22T10:44:21.968Z,99718.00
2022-08-22T10:50:35.303Z,99771.00
2022-08-22T10:56:49.778Z,99690.00
2022-08-22T11:03:01.201Z,99695.00
2022-08-22T11:09:32.152Z,99707.00
2022-08-22T11:16:11.364Z,99706.00
2022-08-22T11:22:29.335Z,99705.00
2022-08-22T11:28:56.812Z,99696.00
2022-08-22T11:35:26.413Z,99689.00
2022-08-22T11:41:44.752Z,99726.00
2022-08-22T11:48:05.307Z,99595.00
2022-08-22T11:54:21.250Z,99603.00
2022-08-22T12:01:04.534Z,99604.00
2022-08-22T12:07:37.404Z,99604.00
2022-08-22T12:14:10.832Z,99581.00
2022-08-22T12:20:27.675Z,99688.00
2022-08-22T12:26:41.868Z,99687.00
2022-08-22T12:33:06.288Z,99606.00
2022-08-22T12:39:42.471Z,99609.00
2022-08-22T12:46:13.406Z,99688.00
2022-08-22T12:52:22.412Z,99629.00
2022-08-22T12:58:34.552Z,99580.00
2022-08-22T13:04:46.045Z,99571.00
2022-08-22T13:10:52.499Z,99591.00
2022-08-22T13:17:00.228Z,99629.00
2022-08-22T13:23:17.084Z,99686.00
2022-08-22T13:29:39.363Z,99671.00
2022-08-22T13:35:52.964Z,99672.00
2022-08-22T13:41:59.041Z,99689.00
2022-08-22T13:48:08.876Z,99672.00
2022-08-22T13:54:16.197Z,99682.00
2022-08-22T14:00:56.559Z,99686.00
2022-08-22T14:07:06.342Z,99686.00
2022-08-22T14:13:11.154Z,99697.00
2022-08-22T14:19:27.217Z,99698.00
2022-08-22T14:25:36.202Z,99700.00
2022-08-22T14:31:38.738Z,99701.00
2022-08-22T14:37:43.992Z,99708.00
2022-08-22T14:44:11.837Z,99724.00
2022-08-22T14:50:52.949Z,99743.00
2022-08-22T14:56:55.565Z,99748.00
2022-08-22T15:03:15.062Z,99733.00
2022-08-22T15:09:33.081Z,99718.00
2022-08-22T15:15:49.426Z,99719.00
2022-08-22T15:22:13.516Z,99729.00
2022-08-22T15:28:20.838Z,99732.00
2022-08-22T15:34:48.529Z,99733.00
2022-08-22T15:40:55.955Z,99732.00
2022-08-22T15:47:34.910Z,99732.00
2022-08-22T15:53:44.225Z,99754.00
2022-08-22T15:59:54.030Z,99747.00
2022-08-22T16:06:05.053Z,99752.00
2022-08-22T16:12:31.999Z,99755.00
2022-08-22T16:18:34.282Z,99754.00
2022-08-22T16:24:59.075Z,99749.00
2022-08-22T16:31:23.209Z,99766.00
2022-08-22T16:37:25.538Z,99788.00
2022-08-22T16:43:28.930Z,99808.00
2022-08-22T16:49:34.034Z,99800.00
2022-08-22T16:56:17.763Z,99794.00
2022-08-22T17:02:38.047Z,99797.00
2022-08-22T17:09:14.936Z,99796.00
2022-08-22T17:15:55.610Z,99799.00
2022-08-22T17:22:03.065Z,99792.00
2022-08-22T17:28:31.191Z,99801.00
2022-08-22T17:35:03.184Z,99809.00
2022-08-22T17:41:27.313Z,99830.00
2022-08-22T17:47:44.099Z,99824.00
2022-08-22T17:53:54.029Z,99833.00
2022-08-22T18:00:11.325Z,99836.00
2022-08-22T18:06:22.464Z,99845.00
2022-08-22T18:12:35.152Z,99853.00
2022-08-22T18:18:45.619Z,99875.00
2022-08-22T18:25:00.016Z,99879.00
2022-08-22T18:31:06.985Z,99890.00
2022-08-22T18:37:35.488Z,99908.00
2022-08-22T18:43:42.021Z,99907.00
2022-08-22T18:49:48.646Z,99902.00
2022-08-22T18:56:00.757Z,99895.00
2022-08-22T19:02:21.681Z,99911.00
2022-08-22T19:08:42.279Z,99908.00
2022-08-22T19:14:50.722Z,99913.00
2022-08-22T19:21:44.323Z,99916.00
2022-08-22T19:28:22.698Z,99908.00
2022-08-22T19:34:30.619Z,99901.00
2022-08-22T19:40:45.062Z,99902.00
2022-08-22T19:47:08.998Z,99900.00
2022-08-22T19:53:20.372Z,99916.00
2022-08-22T19:59:35.381Z,99911.00
2022-08-22T20:06:13.724Z,99902.00
2022-08-22T20:12:30.320Z,99921.00
2022-08-22T20:19:07.783Z,99915.00
2022-08-22T20:25:41.442Z,99914.00
2022-08-22T20:31:51.437Z,99913.00
2022-08-22T20:38:06.751Z,99898.00
2022-08-22T20:44:14.274Z,99889.00
2022-08-22T20:50:21.293Z,99888.00
2022-08-22T20:56:53.578Z,99884.00
2022-08-22T21:03:02.654Z,99886.00
2022-08-22T21:09:36.285Z,99887.00
2022-08-22T21:15:44.789Z,99885.00
2022-08-22T21:21:46.874Z,99888.00
2022-08-22T21:27:49.439Z,99876.00
2022-08-22T21:33:54.029Z,99891.00
2022-08-22T21:40:18.104Z,99889.00
2022-08-22T21:46:29.091Z,99886.00
2022-08-22T21:52:34.476Z,99902.00
2022-08-22T21:58:37.481Z,99897.00
2022-08-22T22:04:39.819Z,99893.00
2022-08-22T22:10:42.875Z,99890.00
2022-08-22T22:16:45.279Z,99881.00
2022-08-22T22:22:47.791Z,99873.00
2022-08-22T22:28:50.591Z,99881.00
2022-08-22T22:34:52.778Z,99872.00
2022-08-22T22:40:55.087Z,99877.00
2022-08-22T22:47:02.655Z,99857.00
2022-08-22T22:53:05.269Z,99861.00
2022-08-22T22:59:13.656Z,99870.00
2022-08-22T23:05:16.952Z,99870.00
2022-08-22T23:11:20.808Z,99865.00
2022-08-22T23:17:23.350Z,99855.00
2022-08-22T23:23:25.646Z,99859.00
2022-08-22T23:29:27.628Z,99860.00
2022-08-22T23:35:29.895Z,99872.00
2022-08-22T23:41:32.135Z,99882.00
2022-08-22T23:47:34.392Z,99880.00
2022-08-22T23:53:36.465Z,99880.00
2022-08-22T23:59:40.741Z,99889.00
